CKT74F KPMD-KBGR
Flight info
| Callsign | CKT74F |
|---|---|
| Flight time | N/A |
| Altitude | 37000 |
| Route | PMD LAS PGA DVC HBU FQF LBF MCW BAE FNT YYZ BGR |
| Aircraft | L101/H-SDFGHIRWXY/S |
Departure
| Time | N/A |
|---|---|
| Airport | Palmdale Regional Airport / USAF Plant 42 Airport (KPMD) |
Arrival
| Time | 2026-05-05 14:28 |
|---|---|
| Airport | Bangor International Airport (KBGR) |
| Time | Latitude | Longitude | Altitude | Speed | Heading |
|---|---|---|---|---|---|
| 2026-05-05 12:25 | 43.56062 | -89.96366 | 38849 ft | 574 kts | 87° |
| 2026-05-05 12:25 | 43.56187 | -89.90933 | 38859 ft | 574 kts | 88° |
| 2026-05-05 12:26 | 43.56345 | -89.79919 | 38871 ft | 574 kts | 89° |
| 2026-05-05 12:26 | 43.56548 | -89.68890 | 38867 ft | 574 kts | 88° |
| 2026-05-05 12:27 | 43.56813 | -89.57891 | 38856 ft | 574 kts | 88° |
| 2026-05-05 12:27 | 43.57099 | -89.46883 | 38842 ft | 574 kts | 87° |
| 2026-05-05 12:28 | 43.57419 | -89.35896 | 38824 ft | 574 kts | 87° |
| 2026-05-05 12:28 | 43.57761 | -89.24877 | 38817 ft | 574 kts | 87° |
| 2026-05-05 12:29 | 43.58120 | -89.13890 | 38819 ft | 573 kts | 86° |
| 2026-05-05 12:29 | 43.58496 | -89.02987 | 38830 ft | 573 kts | 86° |
| 2026-05-05 12:30 | 43.58886 | -88.91999 | 38834 ft | 573 kts | 86° |
| 2026-05-05 12:30 | 43.59290 | -88.81005 | 38837 ft | 572 kts | 86° |
| 2026-05-05 12:31 | 43.59710 | -88.70048 | 38812 ft | 572 kts | 86° |
| 2026-05-05 12:31 | 43.60146 | -88.59126 | 38819 ft | 572 kts | 86° |
| 2026-05-05 12:32 | 43.60583 | -88.48140 | 38824 ft | 572 kts | 86° |
| 2026-05-05 12:32 | 43.61039 | -88.37223 | 38813 ft | 571 kts | 86° |
| 2026-05-05 12:33 | 43.61514 | -88.26294 | 38810 ft | 571 kts | 86° |
| 2026-05-05 12:33 | 43.62005 | -88.15370 | 38816 ft | 570 kts | 86° |
| 2026-05-05 12:34 | 43.62504 | -88.04507 | 38806 ft | 569 kts | 86° |
| 2026-05-05 12:34 | 43.63025 | -87.93571 | 38802 ft | 569 kts | 86° |
| 2026-05-05 12:35 | 43.63559 | -87.82658 | 38803 ft | 569 kts | 86° |
| 2026-05-05 12:35 | 43.64094 | -87.71740 | 38803 ft | 569 kts | 86° |
| 2026-05-05 12:36 | 43.64640 | -87.60841 | 38805 ft | 570 kts | 85° |
| 2026-05-05 12:36 | 43.65210 | -87.49894 | 38806 ft | 570 kts | 85° |
| 2026-05-05 12:37 | 43.65793 | -87.39026 | 38816 ft | 570 kts | 85° |
| 2026-05-05 12:37 | 43.66394 | -87.28108 | 38815 ft | 569 kts | 85° |
| 2026-05-05 12:38 | 43.67010 | -87.17207 | 38824 ft | 569 kts | 85° |
| 2026-05-05 12:38 | 43.67641 | -87.06301 | 38824 ft | 569 kts | 85° |
| 2026-05-05 12:39 | 43.68286 | -86.95366 | 38827 ft | 569 kts | 85° |
| 2026-05-05 12:39 | 43.68944 | -86.84484 | 38816 ft | 568 kts | 85° |
| 2026-05-05 12:40 | 43.69621 | -86.73623 | 38807 ft | 568 kts | 85° |
| 2026-05-05 12:40 | 43.70312 | -86.62754 | 38797 ft | 568 kts | 85° |
| 2026-05-05 12:41 | 43.70940 | -86.51832 | 38798 ft | 568 kts | 85° |
| 2026-05-05 12:41 | 43.71620 | -86.40974 | 38788 ft | 568 kts | 85° |
| 2026-05-05 12:42 | 43.72326 | -86.30140 | 38786 ft | 568 kts | 84° |
| 2026-05-05 12:42 | 43.73054 | -86.19261 | 38777 ft | 568 kts | 84° |
| 2026-05-05 12:43 | 43.73796 | -86.08429 | 38766 ft | 566 kts | 84° |
| 2026-05-05 12:43 | 43.74555 | -85.97609 | 38768 ft | 566 kts | 84° |
| 2026-05-05 12:44 | 43.75322 | -85.86796 | 38762 ft | 566 kts | 84° |
| 2026-05-05 12:44 | 43.76106 | -85.75968 | 38772 ft | 566 kts | 84° |
| 2026-05-05 12:45 | 43.76913 | -85.65136 | 38773 ft | 566 kts | 84° |
| 2026-05-05 12:45 | 43.77732 | -85.54342 | 38775 ft | 566 kts | 84° |
| 2026-05-05 12:46 | 43.78559 | -85.43537 | 38780 ft | 566 kts | 84° |
| 2026-05-05 12:46 | 43.79406 | -85.32694 | 38766 ft | 564 kts | 84° |
| 2026-05-05 12:47 | 43.80268 | -85.21949 | 38753 ft | 564 kts | 84° |
| 2026-05-05 12:47 | 43.81007 | -85.12901 | 38742 ft | 564 kts | 84° |
| 2026-05-05 12:48 | 43.81892 | -85.02154 | 38745 ft | 562 kts | 84° |
| 2026-05-05 12:48 | 43.82968 | -84.89673 | 38746 ft | 562 kts | 83° |
| 2026-05-05 12:49 | 43.83769 | -84.80671 | 38749 ft | 562 kts | 83° |
| 2026-05-05 12:49 | 43.84743 | -84.69916 | 38750 ft | 562 kts | 83° |
| 2026-05-05 12:50 | 43.85729 | -84.59255 | 38754 ft | 561 kts | 83° |
| 2026-05-05 12:50 | 43.86761 | -84.48490 | 38759 ft | 561 kts | 84° |
| 2026-05-05 12:51 | 43.87466 | -84.37802 | 38756 ft | 560 kts | 89° |
| 2026-05-05 12:51 | 43.87636 | -84.27011 | 38745 ft | 558 kts | 92° |
| 2026-05-05 12:52 | 43.87639 | -84.16250 | 38745 ft | 557 kts | 93° |
| 2026-05-05 12:52 | 43.87608 | -84.05501 | 38767 ft | 559 kts | 93° |
| 2026-05-05 12:53 | 43.87558 | -83.94721 | 38743 ft | 559 kts | 93° |
| 2026-05-05 12:53 | 43.87515 | -83.84025 | 38734 ft | 558 kts | 93° |
| 2026-05-05 12:54 | 43.87516 | -83.67869 | 38716 ft | 558 kts | 93° |
| 2026-05-05 12:55 | 43.87539 | -83.57112 | 38723 ft | 558 kts | 92° |
| 2026-05-05 12:55 | 43.87575 | -83.46338 | 38724 ft | 560 kts | 92° |
| 2026-05-05 12:56 | 43.87621 | -83.35565 | 38726 ft | 559 kts | 93° |
| 2026-05-05 12:56 | 43.87626 | -83.24823 | 38730 ft | 560 kts | 92° |
| 2026-05-05 12:57 | 43.87679 | -83.14008 | 38737 ft | 561 kts | 92° |
| 2026-05-05 12:57 | 43.87739 | -83.03184 | 38751 ft | 562 kts | 92° |
| 2026-05-05 12:58 | 43.87801 | -82.92418 | 38747 ft | 562 kts | 92° |
| 2026-05-05 12:58 | 43.87870 | -82.81516 | 38738 ft | 562 kts | 92° |
| 2026-05-05 12:59 | 43.87939 | -82.70712 | 38726 ft | 563 kts | 92° |
| 2026-05-05 12:59 | 43.87994 | -82.59844 | 38720 ft | 563 kts | 92° |
| 2026-05-05 13:00 | 43.88083 | -82.43524 | 38728 ft | 563 kts | 92° |
| 2026-05-05 13:01 | 43.88189 | -82.21861 | 38741 ft | 562 kts | 91° |
| 2026-05-05 13:01 | 43.88236 | -82.10996 | 38744 ft | 562 kts | 91° |
| 2026-05-05 13:02 | 43.88290 | -82.00206 | 38753 ft | 563 kts | 91° |
| 2026-05-05 13:02 | 43.88352 | -81.89374 | 38748 ft | 562 kts | 91° |
| 2026-05-05 13:03 | 43.88393 | -81.78515 | 38726 ft | 562 kts | 91° |
| 2026-05-05 13:03 | 43.88454 | -81.67712 | 38730 ft | 562 kts | 91° |
| 2026-05-05 13:04 | 43.88539 | -81.56868 | 38705 ft | 561 kts | 91° |
| 2026-05-05 13:04 | 43.88630 | -81.46099 | 38698 ft | 560 kts | 91° |
| 2026-05-05 13:05 | 43.88738 | -81.35307 | 38693 ft | 560 kts | 91° |
| 2026-05-05 13:05 | 43.88860 | -81.24511 | 38688 ft | 557 kts | 91° |
| 2026-05-05 13:06 | 43.88985 | -81.13724 | 38702 ft | 561 kts | 92° |
| 2026-05-05 13:06 | 43.89085 | -81.02919 | 38692 ft | 561 kts | 91° |
| 2026-05-05 13:07 | 43.89239 | -80.92143 | 38689 ft | 561 kts | 91° |
| 2026-05-05 13:07 | 43.89421 | -80.81341 | 38678 ft | 557 kts | 91° |
| 2026-05-05 13:08 | 43.89622 | -80.70644 | 38676 ft | 557 kts | 90° |
| 2026-05-05 13:08 | 43.89836 | -80.59901 | 38675 ft | 557 kts | 90° |
| 2026-05-05 13:09 | 43.90060 | -80.49161 | 38657 ft | 554 kts | 90° |
| 2026-05-05 13:09 | 43.90300 | -80.38539 | 38660 ft | 554 kts | 90° |
| 2026-05-05 13:10 | 43.90554 | -80.27824 | 38656 ft | 554 kts | 90° |
| 2026-05-05 13:10 | 43.90816 | -80.17163 | 38657 ft | 554 kts | 90° |
| 2026-05-05 13:11 | 43.91092 | -80.06521 | 38649 ft | 552 kts | 90° |
| 2026-05-05 13:11 | 43.91383 | -79.95899 | 38641 ft | 552 kts | 90° |
| 2026-05-05 13:12 | 43.91676 | -79.85307 | 38639 ft | 552 kts | 90° |
| 2026-05-05 13:12 | 43.91950 | -79.74660 | 38633 ft | 549 kts | 90° |
| 2026-05-05 13:13 | 43.92239 | -79.64104 | 38650 ft | 549 kts | 90° |
| 2026-05-05 13:13 | 43.92535 | -79.53544 | 38652 ft | 549 kts | 90° |
| 2026-05-05 13:14 | 43.92852 | -79.42975 | 38647 ft | 549 kts | 90° |
| 2026-05-05 13:14 | 43.93191 | -79.32416 | 38649 ft | 548 kts | 90° |
| 2026-05-05 13:15 | 43.93554 | -79.21819 | 38646 ft | 548 kts | 90° |
| 2026-05-05 13:15 | 43.93929 | -79.11319 | 38645 ft | 548 kts | 89° |
| 2026-05-05 13:16 | 43.94316 | -79.00771 | 38637 ft | 546 kts | 89° |
| 2026-05-05 13:16 | 43.94700 | -78.90212 | 38644 ft | 546 kts | 90° |
| 2026-05-05 13:17 | 43.95069 | -78.79668 | 38645 ft | 547 kts | 89° |
| 2026-05-05 13:17 | 43.95462 | -78.69143 | 38648 ft | 546 kts | 89° |
| 2026-05-05 13:18 | 43.95852 | -78.58595 | 38641 ft | 549 kts | 89° |
| 2026-05-05 13:18 | 43.96225 | -78.48065 | 38642 ft | 548 kts | 89° |
| 2026-05-05 13:19 | 43.96848 | -78.37492 | 38636 ft | 549 kts | 85° |
| 2026-05-05 13:19 | 43.97274 | -78.32242 | 38638 ft | 537 kts | 85° |
| 2026-05-05 13:19 | 43.97717 | -78.27179 | 38640 ft | 521 kts | 84° |
| 2026-05-05 13:20 | 43.98628 | -78.17297 | 38647 ft | 514 kts | 84° |
| 2026-05-05 13:20 | 43.99557 | -78.07531 | 38663 ft | 512 kts | 84° |
| 2026-05-05 13:21 | 44.00525 | -77.97728 | 38660 ft | 512 kts | 84° |
| 2026-05-05 13:21 | 44.01488 | -77.87926 | 38655 ft | 513 kts | 83° |
| 2026-05-05 13:22 | 44.02426 | -77.78093 | 38659 ft | 513 kts | 83° |
| 2026-05-05 13:22 | 44.03361 | -77.68258 | 38656 ft | 513 kts | 84° |
| 2026-05-05 13:23 | 44.04298 | -77.58425 | 38653 ft | 513 kts | 83° |
| 2026-05-05 13:23 | 44.05217 | -77.48660 | 38655 ft | 512 kts | 83° |
| 2026-05-05 13:24 | 44.06137 | -77.38792 | 38656 ft | 512 kts | 83° |
| 2026-05-05 13:24 | 44.07047 | -77.29044 | 38661 ft | 512 kts | 83° |
| 2026-05-05 13:25 | 44.07971 | -77.19181 | 38657 ft | 511 kts | 83° |
| 2026-05-05 13:25 | 44.08881 | -77.09388 | 38667 ft | 510 kts | 83° |
| 2026-05-05 13:26 | 44.09783 | -76.99667 | 38675 ft | 509 kts | 83° |
| 2026-05-05 13:26 | 44.10697 | -76.89870 | 38675 ft | 509 kts | 83° |
| 2026-05-05 13:27 | 44.11615 | -76.80118 | 38665 ft | 506 kts | 83° |
| 2026-05-05 13:27 | 44.12545 | -76.70467 | 38665 ft | 503 kts | 83° |
| 2026-05-05 13:28 | 44.13493 | -76.60780 | 38664 ft | 503 kts | 83° |
| 2026-05-05 13:28 | 44.14439 | -76.51173 | 38664 ft | 503 kts | 83° |
| 2026-05-05 13:29 | 44.15413 | -76.41605 | 38666 ft | 498 kts | 83° |
| 2026-05-05 13:29 | 44.16435 | -76.32046 | 38662 ft | 497 kts | 83° |
| 2026-05-05 13:30 | 44.17463 | -76.22540 | 38673 ft | 498 kts | 83° |
| 2026-05-05 13:30 | 44.18480 | -76.13015 | 38673 ft | 499 kts | 83° |
| 2026-05-05 13:31 | 44.19531 | -76.03467 | 38672 ft | 496 kts | 83° |
| 2026-05-05 13:31 | 44.20619 | -75.94002 | 38672 ft | 495 kts | 83° |
| 2026-05-05 13:32 | 44.21728 | -75.84538 | 38658 ft | 495 kts | 82° |
| 2026-05-05 13:32 | 44.22844 | -75.75096 | 38662 ft | 495 kts | 82° |
| 2026-05-05 13:33 | 44.23974 | -75.65643 | 38653 ft | 494 kts | 83° |
| 2026-05-05 13:33 | 44.25079 | -75.56156 | 38663 ft | 494 kts | 83° |
| 2026-05-05 13:34 | 44.26233 | -75.46696 | 38697 ft | 494 kts | 83° |
| 2026-05-05 13:34 | 44.27411 | -75.37274 | 38689 ft | 495 kts | 82° |
| 2026-05-05 13:35 | 44.28612 | -75.27791 | 38677 ft | 495 kts | 82° |
| 2026-05-05 13:35 | 44.29806 | -75.18324 | 38694 ft | 495 kts | 82° |
| 2026-05-05 13:36 | 44.30801 | -75.10428 | 38695 ft | 495 kts | 82° |
| 2026-05-05 13:36 | 44.31998 | -75.00967 | 38702 ft | 495 kts | 82° |
| 2026-05-05 13:37 | 44.33205 | -74.91473 | 38699 ft | 495 kts | 82° |
| 2026-05-05 13:37 | 44.34399 | -74.82056 | 38718 ft | 496 kts | 82° |
| 2026-05-05 13:38 | 44.35570 | -74.72537 | 38734 ft | 497 kts | 82° |
| 2026-05-05 13:38 | 44.36742 | -74.63049 | 38728 ft | 497 kts | 82° |
| 2026-05-05 13:39 | 44.37884 | -74.53516 | 38730 ft | 497 kts | 82° |
| 2026-05-05 13:39 | 44.39062 | -74.43985 | 38727 ft | 497 kts | 82° |
| 2026-05-05 13:40 | 44.40265 | -74.34465 | 38730 ft | 497 kts | 82° |
| 2026-05-05 13:40 | 44.41503 | -74.24778 | 38725 ft | 515 kts | 82° |
| 2026-05-05 13:41 | 44.42753 | -74.14824 | 38725 ft | 520 kts | 82° |
| 2026-05-05 13:41 | 44.44018 | -74.04838 | 38715 ft | 521 kts | 81° |
| 2026-05-05 13:42 | 44.45252 | -73.94915 | 38739 ft | 522 kts | 82° |
| 2026-05-05 13:42 | 44.46503 | -73.84858 | 38727 ft | 523 kts | 82° |
| 2026-05-05 13:43 | 44.47757 | -73.74834 | 38721 ft | 523 kts | 81° |
| 2026-05-05 13:43 | 44.48982 | -73.64779 | 38720 ft | 523 kts | 83° |
| 2026-05-05 13:44 | 44.49646 | -73.54630 | 38715 ft | 522 kts | 91° |
| 2026-05-05 13:44 | 44.49355 | -73.44497 | 38709 ft | 519 kts | 98° |
| 2026-05-05 13:45 | 44.49376 | -73.34345 | 38738 ft | 524 kts | 86° |
| 2026-05-05 13:45 | 44.50243 | -73.24209 | 38725 ft | 525 kts | 83° |
| 2026-05-05 13:46 | 44.51353 | -73.14182 | 38737 ft | 525 kts | 82° |
| 2026-05-05 13:46 | 44.52552 | -73.04019 | 38754 ft | 525 kts | 82° |
| 2026-05-05 13:47 | 44.53136 | -72.99028 | 38420 ft | 523 kts | 82° |
| 2026-05-05 13:47 | 44.53720 | -72.94047 | 37757 ft | 513 kts | 82° |
| 2026-05-05 13:47 | 44.54298 | -72.89155 | 37154 ft | 506 kts | 81° |
| 2026-05-05 13:47 | 44.54794 | -72.84295 | 36553 ft | 500 kts | 84° |
| 2026-05-05 13:48 | 44.55242 | -72.79472 | 35950 ft | 495 kts | 82° |
| 2026-05-05 13:48 | 44.55738 | -72.74718 | 35377 ft | 488 kts | 82° |
| 2026-05-05 13:48 | 44.56255 | -72.70033 | 34823 ft | 483 kts | 81° |
| 2026-05-05 13:48 | 44.56779 | -72.65394 | 34286 ft | 480 kts | 81° |
| 2026-05-05 13:49 | 44.57303 | -72.60779 | 33718 ft | 477 kts | 81° |
| 2026-05-05 13:49 | 44.57819 | -72.56240 | 33083 ft | 473 kts | 81° |
| 2026-05-05 13:49 | 44.58341 | -72.51700 | 32471 ft | 469 kts | 81° |
| 2026-05-05 13:49 | 44.58868 | -72.47206 | 31862 ft | 464 kts | 81° |
| 2026-05-05 13:50 | 44.59389 | -72.42766 | 31273 ft | 459 kts | 82° |
| 2026-05-05 13:50 | 44.59911 | -72.38362 | 30690 ft | 455 kts | 81° |
| 2026-05-05 13:50 | 44.60438 | -72.34011 | 30129 ft | 451 kts | 81° |
| 2026-05-05 13:50 | 44.60973 | -72.29689 | 29524 ft | 447 kts | 81° |
| 2026-05-05 13:51 | 44.61514 | -72.25405 | 28880 ft | 443 kts | 81° |
| 2026-05-05 13:51 | 44.62052 | -72.21212 | 28246 ft | 439 kts | 81° |
| 2026-05-05 13:51 | 44.62598 | -72.17023 | 27666 ft | 435 kts | 81° |
| 2026-05-05 13:51 | 44.63142 | -72.12877 | 27069 ft | 430 kts | 81° |
| 2026-05-05 13:52 | 44.63690 | -72.08762 | 26465 ft | 426 kts | 81° |
| 2026-05-05 13:52 | 44.64242 | -72.04679 | 25936 ft | 422 kts | 81° |
| 2026-05-05 13:52 | 44.64794 | -72.00649 | 25449 ft | 419 kts | 81° |
| 2026-05-05 13:52 | 44.65349 | -71.96646 | 24945 ft | 416 kts | 81° |
| 2026-05-05 13:53 | 44.65900 | -71.92683 | 24458 ft | 412 kts | 81° |
| 2026-05-05 13:53 | 44.66444 | -71.88782 | 23995 ft | 409 kts | 81° |
| 2026-05-05 13:53 | 44.66975 | -71.84828 | 23527 ft | 406 kts | 81° |
| 2026-05-05 13:53 | 44.67506 | -71.80954 | 23108 ft | 403 kts | 81° |
| 2026-05-05 13:54 | 44.68045 | -71.77135 | 22670 ft | 393 kts | 81° |
| 2026-05-05 13:54 | 44.68573 | -71.73450 | 22234 ft | 387 kts | 81° |
| 2026-05-05 13:54 | 44.69103 | -71.69758 | 21824 ft | 384 kts | 81° |
| 2026-05-05 13:54 | 44.69628 | -71.66089 | 21402 ft | 382 kts | 81° |
| 2026-05-05 13:55 | 44.70145 | -71.62437 | 20981 ft | 379 kts | 81° |
| 2026-05-05 13:55 | 44.70649 | -71.58814 | 20577 ft | 377 kts | 81° |
| 2026-05-05 13:55 | 44.70967 | -71.55182 | 20154 ft | 372 kts | 91° |
| 2026-05-05 13:55 | 44.70941 | -71.51561 | 19762 ft | 369 kts | 96° |
| 2026-05-05 13:56 | 44.70761 | -71.47973 | 19370 ft | 366 kts | 99° |
| 2026-05-05 13:56 | 44.70515 | -71.44411 | 18984 ft | 363 kts | 100° |
| 2026-05-05 13:56 | 44.70244 | -71.40882 | 18608 ft | 362 kts | 100° |
| 2026-05-05 13:56 | 44.69965 | -71.37377 | 18232 ft | 360 kts | 101° |
| 2026-05-05 13:57 | 44.69686 | -71.33919 | 17828 ft | 359 kts | 101° |
| 2026-05-05 13:57 | 44.69405 | -71.30445 | 17402 ft | 356 kts | 101° |
| 2026-05-05 13:57 | 44.69120 | -71.26996 | 16978 ft | 353 kts | 102° |
| 2026-05-05 13:57 | 44.68764 | -71.23601 | 16578 ft | 350 kts | 102° |
| 2026-05-05 13:58 | 44.68445 | -71.20219 | 16176 ft | 348 kts | 101° |
| 2026-05-05 13:58 | 44.68160 | -71.16845 | 15775 ft | 346 kts | 101° |
| 2026-05-05 13:58 | 44.67892 | -71.13491 | 15346 ft | 343 kts | 101° |
| 2026-05-05 13:58 | 44.67624 | -71.10186 | 14950 ft | 339 kts | 103° |
| 2026-05-05 13:59 | 44.66671 | -71.03790 | 14397 ft | 331 kts | 107° |
| 2026-05-05 13:59 | 44.66186 | -71.00631 | 14278 ft | 331 kts | 105° |
| 2026-05-05 14:00 | 44.66831 | -70.94263 | 13961 ft | 339 kts | 74° |
| 2026-05-05 14:00 | 44.67270 | -70.92122 | 13878 ft | 338 kts | 77° |
| 2026-05-05 14:00 | 44.68031 | -70.87869 | 13701 ft | 337 kts | 79° |
| 2026-05-05 14:00 | 44.68545 | -70.84669 | 13506 ft | 336 kts | 81° |
| 2026-05-05 14:01 | 44.69009 | -70.81455 | 13288 ft | 335 kts | 81° |
| 2026-05-05 14:01 | 44.69453 | -70.78243 | 13077 ft | 335 kts | 81° |
| 2026-05-05 14:01 | 44.69902 | -70.75039 | 12856 ft | 333 kts | 82° |
| 2026-05-05 14:01 | 44.70295 | -70.71839 | 12638 ft | 332 kts | 82° |
| 2026-05-05 14:02 | 44.70698 | -70.68620 | 12440 ft | 337 kts | 82° |
| 2026-05-05 14:02 | 44.71101 | -70.65357 | 12234 ft | 340 kts | 83° |
| 2026-05-05 14:02 | 44.71431 | -70.62084 | 12027 ft | 338 kts | 89° |
| 2026-05-05 14:02 | 44.71303 | -70.58834 | 11774 ft | 329 kts | 109° |
| 2026-05-05 14:03 | 44.70316 | -70.56078 | 11511 ft | 309 kts | 131° |
| 2026-05-05 14:03 | 44.69216 | -70.53398 | 11316 ft | 324 kts | 115° |
| 2026-05-05 14:03 | 44.68863 | -70.50260 | 11151 ft | 331 kts | 89° |
| 2026-05-05 14:03 | 44.69313 | -70.47107 | 11057 ft | 335 kts | 75° |
| 2026-05-05 14:04 | 44.70018 | -70.43987 | 11012 ft | 335 kts | 73° |
| 2026-05-05 14:04 | 44.70732 | -70.40873 | 10972 ft | 334 kts | 74° |
| 2026-05-05 14:04 | 44.71403 | -70.37753 | 10962 ft | 334 kts | 75° |
| 2026-05-05 14:04 | 44.72031 | -70.34589 | 10959 ft | 335 kts | 77° |
| 2026-05-05 14:05 | 44.72628 | -70.31314 | 10974 ft | 346 kts | 78° |
| 2026-05-05 14:05 | 44.73187 | -70.28025 | 10948 ft | 345 kts | 79° |
| 2026-05-05 14:05 | 44.73706 | -70.24730 | 10942 ft | 344 kts | 80° |
| 2026-05-05 14:05 | 44.74183 | -70.21466 | 10951 ft | 344 kts | 81° |
| 2026-05-05 14:06 | 44.74636 | -70.18123 | 10956 ft | 344 kts | 82° |
| 2026-05-05 14:06 | 44.75044 | -70.14856 | 10955 ft | 344 kts | 83° |
| 2026-05-05 14:06 | 44.75434 | -70.11536 | 10953 ft | 344 kts | 83° |
| 2026-05-05 14:06 | 44.75798 | -70.08214 | 10953 ft | 343 kts | 84° |
| 2026-05-05 14:07 | 44.76130 | -70.04882 | 10964 ft | 343 kts | 85° |
| 2026-05-05 14:07 | 44.76453 | -70.01546 | 10964 ft | 344 kts | 85° |
| 2026-05-05 14:07 | 44.76761 | -69.98222 | 10960 ft | 344 kts | 85° |
| 2026-05-05 14:07 | 44.77036 | -69.94884 | 10962 ft | 343 kts | 86° |
| 2026-05-05 14:08 | 44.77302 | -69.91550 | 10965 ft | 343 kts | 86° |
| 2026-05-05 14:08 | 44.77572 | -69.88220 | 10963 ft | 342 kts | 86° |
| 2026-05-05 14:08 | 44.77827 | -69.84882 | 10967 ft | 343 kts | 86° |
| 2026-05-05 14:08 | 44.78079 | -69.81547 | 10965 ft | 343 kts | 86° |
| 2026-05-05 14:09 | 44.78323 | -69.78210 | 10967 ft | 343 kts | 87° |
| 2026-05-05 14:09 | 44.78556 | -69.74868 | 10969 ft | 343 kts | 87° |
| 2026-05-05 14:09 | 44.78790 | -69.71537 | 10965 ft | 343 kts | 87° |
| 2026-05-05 14:09 | 44.79028 | -69.68193 | 10972 ft | 343 kts | 87° |
| 2026-05-05 14:10 | 44.79263 | -69.64857 | 10804 ft | 336 kts | 87° |
| 2026-05-05 14:10 | 44.79487 | -69.61646 | 10384 ft | 322 kts | 88° |
| 2026-05-05 14:10 | 44.79695 | -69.58537 | 9958 ft | 317 kts | 88° |
| 2026-05-05 14:10 | 44.79892 | -69.55497 | 9541 ft | 314 kts | 88° |
| 2026-05-05 14:11 | 44.80086 | -69.52401 | 9099 ft | 312 kts | 89° |
| 2026-05-05 14:11 | 44.80281 | -69.49366 | 8661 ft | 309 kts | 88° |
| 2026-05-05 14:11 | 44.80479 | -69.46399 | 8232 ft | 307 kts | 89° |
| 2026-05-05 14:11 | 44.80644 | -69.43431 | 7908 ft | 302 kts | 90° |
| 2026-05-05 14:12 | 44.80801 | -69.40479 | 7617 ft | 302 kts | 89° |
| 2026-05-05 14:12 | 44.80995 | -69.37540 | 7311 ft | 301 kts | 89° |
| 2026-05-05 14:12 | 44.81170 | -69.34611 | 7017 ft | 299 kts | 91° |
| 2026-05-05 14:12 | 44.81308 | -69.31709 | 6713 ft | 296 kts | 90° |
| 2026-05-05 14:13 | 44.81516 | -69.28830 | 6434 ft | 295 kts | 88° |
| 2026-05-05 14:13 | 44.81740 | -69.25969 | 6141 ft | 292 kts | 89° |
| 2026-05-05 14:13 | 44.81949 | -69.23192 | 5827 ft | 279 kts | 89° |
| 2026-05-05 14:13 | 44.82138 | -69.20534 | 5529 ft | 268 kts | 90° |
| 2026-05-05 14:14 | 44.82303 | -69.17935 | 5241 ft | 266 kts | 91° |
| 2026-05-05 14:14 | 44.82450 | -69.15349 | 5044 ft | 263 kts | 92° |
| 2026-05-05 14:14 | 44.82586 | -69.12800 | 5033 ft | 253 kts | 92° |
| 2026-05-05 14:14 | 44.82706 | -69.10378 | 4999 ft | 248 kts | 93° |
| 2026-05-05 14:15 | 44.82822 | -69.07948 | 4986 ft | 247 kts | 92° |
| 2026-05-05 14:15 | 44.82938 | -69.05644 | 4975 ft | 222 kts | 93° |
| 2026-05-05 14:15 | 44.83051 | -69.03579 | 4988 ft | 207 kts | 93° |
| 2026-05-05 14:15 | 44.83160 | -69.01591 | 4985 ft | 206 kts | 92° |
| 2026-05-05 14:16 | 44.83279 | -68.99573 | 4986 ft | 207 kts | 92° |
| 2026-05-05 14:16 | 44.83413 | -68.97524 | 4985 ft | 207 kts | 91° |
| 2026-05-05 14:16 | 44.83553 | -68.95512 | 4984 ft | 207 kts | 91° |
| 2026-05-05 14:16 | 44.83700 | -68.93522 | 4986 ft | 207 kts | 91° |
| 2026-05-05 14:17 | 44.83858 | -68.91507 | 4987 ft | 207 kts | 90° |
| 2026-05-05 14:17 | 44.84015 | -68.89494 | 4984 ft | 206 kts | 90° |
| 2026-05-05 14:17 | 44.84171 | -68.87504 | 4987 ft | 206 kts | 91° |
| 2026-05-05 14:17 | 44.84199 | -68.85548 | 4948 ft | 197 kts | 111° |
| 2026-05-05 14:18 | 44.83650 | -68.83878 | 4972 ft | 182 kts | 136° |
| 2026-05-05 14:18 | 44.82843 | -68.82538 | 5005 ft | 180 kts | 142° |
| 2026-05-05 14:18 | 44.82028 | -68.81196 | 4987 ft | 176 kts | 147° |
| 2026-05-05 14:18 | 44.81072 | -68.80183 | 4987 ft | 170 kts | 157° |
| 2026-05-05 14:19 | 44.80066 | -68.79306 | 4930 ft | 171 kts | 160° |
| 2026-05-05 14:19 | 44.79037 | -68.78482 | 4753 ft | 167 kts | 163° |
| 2026-05-05 14:19 | 44.77969 | -68.77986 | 4566 ft | 158 kts | 179° |
| 2026-05-05 14:19 | 44.76912 | -68.78044 | 4406 ft | 150 kts | 196° |
| 2026-05-05 14:20 | 44.75907 | -68.78377 | 4255 ft | 147 kts | 200° |
| 2026-05-05 14:20 | 44.74922 | -68.78735 | 4121 ft | 146 kts | 200° |
| 2026-05-05 14:20 | 44.73958 | -68.79111 | 4015 ft | 145 kts | 199° |
| 2026-05-05 14:20 | 44.72937 | -68.79284 | 4012 ft | 150 kts | 188° |
| 2026-05-05 14:21 | 44.71883 | -68.79151 | 3995 ft | 155 kts | 178° |
| 2026-05-05 14:21 | 44.70841 | -68.78649 | 3987 ft | 162 kts | 165° |
| 2026-05-05 14:21 | 44.69845 | -68.77880 | 3992 ft | 164 kts | 161° |
| 2026-05-05 14:21 | 44.68871 | -68.77053 | 4000 ft | 163 kts | 159° |
| 2026-05-05 14:22 | 44.67912 | -68.76235 | 3993 ft | 163 kts | 159° |
| 2026-05-05 14:22 | 44.66941 | -68.75412 | 3994 ft | 163 kts | 160° |
| 2026-05-05 14:22 | 44.66060 | -68.74355 | 3977 ft | 176 kts | 140° |
| 2026-05-05 14:22 | 44.65503 | -68.72751 | 3860 ft | 195 kts | 111° |
| 2026-05-05 14:23 | 44.65660 | -68.70834 | 3725 ft | 210 kts | 77° |
| 2026-05-05 14:23 | 44.66274 | -68.68960 | 3600 ft | 212 kts | 67° |
| 2026-05-05 14:23 | 44.66751 | -68.67758 | 3547 ft | 212 kts | 59° |
| 2026-05-05 14:23 | 44.67760 | -68.66216 | 3365 ft | 215 kts | 40° |
| 2026-05-05 14:24 | 44.68893 | -68.65273 | 3119 ft | 210 kts | 16° |
| 2026-05-05 14:24 | 44.69888 | -68.65085 | 3021 ft | 198 kts | 346° |
| 2026-05-05 14:24 | 44.71082 | -68.65759 | 3029 ft | 177 kts | 307° |
| 2026-05-05 14:25 | 44.71699 | -68.67083 | 3159 ft | 154 kts | 281° |
| 2026-05-05 14:25 | 44.72052 | -68.68478 | 3133 ft | 150 kts | 276° |
| 2026-05-05 14:25 | 44.72506 | -68.69811 | 2925 ft | 158 kts | 290° |
| 2026-05-05 14:25 | 44.73208 | -68.71019 | 2741 ft | 160 kts | 298° |
| 2026-05-05 14:26 | 44.73965 | -68.72188 | 2498 ft | 164 kts | 300° |
| 2026-05-05 14:26 | 44.74728 | -68.73386 | 2139 ft | 163 kts | 300° |
| 2026-05-05 14:26 | 44.75430 | -68.74583 | 1806 ft | 154 kts | 297° |
| 2026-05-05 14:26 | 44.76074 | -68.75731 | 1526 ft | 147 kts | 296° |
| 2026-05-05 14:27 | 44.76717 | -68.76836 | 1270 ft | 145 kts | 297° |
| 2026-05-05 14:27 | 44.77380 | -68.77922 | 986 ft | 148 kts | 301° |
| 2026-05-05 14:27 | 44.78087 | -68.78985 | 751 ft | 150 kts | 310° |
| 2026-05-05 14:27 | 44.78834 | -68.80029 | 476 ft | 151 kts | 306° |
| 2026-05-05 14:28 | 44.79560 | -68.81095 | 256 ft | 151 kts | 309° |
| 2026-05-05 14:28 | 44.80231 | -68.82064 | 177 ft | 116 kts | 310° |
| 2026-05-05 14:28 | 44.80406 | -68.82354 | 176 ft | 0 kts | 310° |
| 2026-05-05 14:28 | 44.80405 | -68.82355 | 180 ft | 0 kts | 310° |
| 2026-05-05 14:30 | 44.80426 | -68.82377 | 180 ft | 13 kts | 321° |
| 2026-05-05 14:30 | 44.80557 | -68.82539 | 183 ft | 36 kts | 314° |
| 2026-05-05 14:30 | 44.80758 | -68.82831 | 204 ft | 43 kts | 314° |
| 2026-05-05 14:31 | 44.80950 | -68.83106 | 191 ft | 39 kts | 314° |
| 2026-05-05 14:31 | 44.81104 | -68.83318 | 194 ft | 15 kts | 341° |
| 2026-05-05 14:31 | 44.81168 | -68.83296 | 200 ft | 11 kts | 33° |
| 2026-05-05 14:31 | 44.81242 | -68.83204 | 197 ft | 17 kts | 45° |
| 2026-05-05 14:32 | 44.81295 | -68.83129 | 201 ft | 1 kts | 42° |
| 2026-05-05 14:32 | 44.81310 | -68.83095 | 201 ft | 7 kts | 71° |
| 2026-05-05 14:32 | 44.81300 | -68.83013 | 201 ft | 10 kts | 124° |
| 2026-05-05 14:32 | 44.81239 | -68.82925 | 205 ft | 16 kts | 134° |
| 2026-05-05 14:33 | 44.81153 | -68.82802 | 204 ft | 18 kts | 134° |
| 2026-05-05 14:33 | 44.81071 | -68.82684 | 198 ft | 15 kts | 135° |
| 2026-05-05 14:33 | 44.80991 | -68.82569 | 202 ft | 16 kts | 134° |
| 2026-05-05 14:33 | 44.80920 | -68.82467 | 187 ft | 14 kts | 134° |
| 2026-05-05 14:34 | 44.80885 | -68.82391 | 191 ft | 7 kts | 90° |
| 2026-05-05 14:34 | 44.80910 | -68.82339 | 191 ft | 11 kts | 44° |
| 2026-05-05 14:34 | 44.80938 | -68.82300 | 193 ft | 4 kts | 43° |
| 2026-05-05 14:34 | 44.80956 | -68.82271 | 190 ft | 7 kts | 57° |
| 2026-05-05 14:35 | 44.80957 | -68.82206 | 184 ft | 4 kts | 116° |
| 2026-05-05 14:35 | 44.80953 | -68.82196 | 183 ft | 1 kts | 121° |
| 2026-05-05 14:35 | 44.80948 | -68.82185 | 183 ft | 2 kts | 127° |
| 2026-05-05 14:35 | 44.80947 | -68.82184 | 183 ft | 0 kts | 129° |